Time;durP1;ratioP1;P1;durP2;ratioP2;P2;SDS_P1;SDS_P2;PMS_P1;PMS_P2;Temp;Humidity;BMP_temperature;BMP_pressure;BME280_temperature;BME280_humidity;BME280_pressure;Samples;Min_cycle;Max_cycle;Signal;HPM_P1;HPM_P2
2021/09/19 00:01:38;;;;;;;18.42;13.75;;;13.10;99.90;;;;;;5095043;28;20455;-69
2021/09/19 00:04:04;;;;;;;21.48;14.98;;;13.10;99.90;;;;;;5094720;28;20020;-69
2021/09/19 00:06:29;;;;;;;16.92;14.00;;;13.10;99.90;;;;;;5093166;28;20023;-69
2021/09/19 00:08:55;;;;;;;19.23;14.80;;;13.10;99.90;;;;;;5076174;28;20038;-69
2021/09/19 00:11:22;;;;;;;17.73;14.05;;;13.10;99.90;;;;;;5094822;28;20036;-69
2021/09/19 00:13:48;;;;;;;19.23;14.68;;;13.10;99.90;;;;;;5093684;28;20024;-69
2021/09/19 00:16:14;;;;;;;21.98;14.57;;;13.00;99.90;;;;;;5093361;28;20085;-69
2021/09/19 00:18:40;;;;;;;20.45;15.07;;;13.10;99.90;;;;;;5094711;28;20024;-69
2021/09/19 00:21:05;;;;;;;19.08;14.75;;;13.10;99.90;;;;;;5092868;28;20518;-69
2021/09/19 00:23:31;;;;;;;20.05;15.95;;;13.00;99.90;;;;;;5094404;28;20534;-69
2021/09/19 00:25:56;;;;;;;20.38;15.75;;;13.00;99.90;;;;;;5094593;28;20028;-69
2021/09/19 00:28:22;;;;;;;21.98;16.40;;;13.00;99.90;;;;;;5094586;28;20020;-69
2021/09/19 00:30:47;;;;;;;20.40;15.00;;;12.90;99.90;;;;;;5093525;28;20032;-69
2021/09/19 00:33:13;;;;;;;21.35;15.90;;;12.90;99.90;;;;;;5094245;28;20051;-69
2021/09/19 00:35:39;;;;;;;21.73;16.98;;;12.90;99.90;;;;;;5094173;28;20024;-69
2021/09/19 00:38:04;;;;;;;24.67;17.63;;;12.90;99.90;;;;;;5093808;28;20020;-69
2021/09/19 00:40:30;;;;;;;25.15;16.85;;;12.90;99.90;;;;;;5094405;28;20461;-69
2021/09/19 00:42:56;;;;;;;24.70;17.25;;;12.90;99.90;;;;;;5094064;28;20024;-69
2021/09/19 00:45:23;;;;;;;21.15;16.83;;;12.80;99.90;;;;;;5094338;28;20028;-69
2021/09/19 00:47:49;;;;;;;21.80;16.40;;;12.80;99.90;;;;;;5094071;28;20031;-69
2021/09/19 00:50:17;;;;;;;20.88;16.48;;;12.80;99.90;;;;;;5094277;28;20071;-69
2021/09/19 00:52:45;;;;;;;23.48;17.58;;;12.70;99.90;;;;;;5092651;28;20030;-69
2021/09/19 00:55:11;;;;;;;22.88;18.23;;;12.70;99.90;;;;;;5094246;28;20126;-69
2021/09/19 00:57:39;;;;;;;23.90;17.55;;;12.70;99.90;;;;;;5093739;28;20047;-69
2021/09/19 01:00:06;;;;;;;22.98;17.55;;;12.70;99.90;;;;;;5094167;28;20020;-69
2021/09/19 01:02:32;;;;;;;26.80;19.05;;;12.60;99.90;;;;;;5093620;28;20028;-69
2021/09/19 01:04:58;;;;;;;25.65;19.65;;;12.60;99.90;;;;;;5093822;28;20032;-69
2021/09/19 01:07:24;;;;;;;28.70;19.05;;;12.50;99.90;;;;;;5093825;28;20028;-69
2021/09/19 01:09:51;;;;;;;27.48;19.23;;;12.50;99.90;;;;;;5094059;28;20024;-69
2021/09/19 01:12:20;;;;;;;26.33;20.30;;;12.50;99.90;;;;;;5093774;28;20032;-69
2021/09/19 01:14:47;;;;;;;29.60;19.33;;;12.50;99.90;;;;;;5094016;28;20024;-69
2021/09/19 01:17:14;;;;;;;25.65;19.48;;;12.40;99.90;;;;;;5093429;28;20051;-69
2021/09/19 01:19:41;;;;;;;27.83;19.50;;;12.40;99.90;;;;;;5093412;28;20024;-69
2021/09/19 01:22:07;;;;;;;30.75;20.55;;;12.30;99.90;;;;;;5092261;28;20012;-69
2021/09/19 01:24:35;;;;;;;27.48;20.30;;;12.30;99.90;;;;;;5093383;28;20104;-69
2021/09/19 01:27:01;;;;;;;26.02;20.20;;;12.20;99.90;;;;;;5093354;28;20031;-69
2021/09/19 01:29:27;;;;;;;31.90;22.25;;;12.20;99.90;;;;;;5093634;28;20433;-69
2021/09/19 01:31:52;;;;;;;30.67;20.48;;;12.20;99.90;;;;;;5093849;28;20024;-69
2021/09/19 01:34:18;;;;;;;30.58;20.83;;;12.20;99.90;;;;;;5093541;28;20073;-69
2021/09/19 01:36:43;;;;;;;28.02;20.92;;;12.20;99.90;;;;;;5093253;28;20032;-69
2021/09/19 01:39:10;;;;;;;27.50;20.45;;;12.10;99.90;;;;;;5092291;28;20028;-69
2021/09/19 01:41:36;;;;;;;26.13;19.98;;;12.10;99.90;;;;;;5093793;28;20023;-69
2021/09/19 01:44:04;;;;;;;33.47;21.40;;;12.10;99.90;;;;;;5093218;28;20059;-69
2021/09/19 01:46:30;;;;;;;28.30;20.75;;;12.10;99.90;;;;;;5091919;28;20024;-69
2021/09/19 01:48:55;;;;;;;29.33;20.73;;;12.10;99.90;;;;;;5093173;28;20039;-69
2021/09/19 01:51:21;;;;;;;30.65;21.63;;;12.10;99.90;;;;;;5075061;28;20469;-69
2021/09/19 01:53:50;;;;;;;32.97;22.15;;;12.20;99.90;;;;;;5092184;28;20489;-69
2021/09/19 01:56:16;;;;;;;32.95;22.10;;;12.20;99.90;;;;;;5092233;28;20521;-69
2021/09/19 01:58:45;;;;;;;34.35;22.83;;;12.20;99.90;;;;;;5092942;28;20044;-69
2021/09/19 02:01:11;;;;;;;31.45;21.13;;;12.20;99.90;;;;;;5093644;28;20473;-69
2021/09/19 02:03:38;;;;;;;33.60;22.63;;;12.20;99.90;;;;;;5093354;28;20020;-69
2021/09/19 02:06:04;;;;;;;31.33;21.20;;;12.30;99.90;;;;;;5096055;28;20016;-69
2021/09/19 02:08:30;;;;;;;37.90;22.15;;;12.30;99.90;;;;;;5095779;28;20465;-69
2021/09/19 02:10:56;;;;;;;34.88;22.55;;;12.20;99.90;;;;;;5097208;28;20031;-69
2021/09/19 02:13:22;;;;;;;29.98;21.17;;;12.20;99.90;;;;;;5097151;28;20475;-69
2021/09/19 02:15:47;;;;;;;37.08;23.02;;;12.30;99.90;;;;;;5097060;28;20507;-69
2021/09/19 02:18:12;;;;;;;29.13;21.20;;;12.30;99.90;;;;;;5095093;28;20020;-69
2021/09/19 02:20:38;;;;;;;31.83;22.02;;;12.30;99.90;;;;;;5095479;28;20027;-69
2021/09/19 02:23:04;;;;;;;34.67;22.42;;;12.30;99.90;;;;;;5095773;28;20012;-69
2021/09/19 02:25:29;;;;;;;32.53;21.05;;;12.30;99.90;;;;;;5095374;28;20031;-69
2021/09/19 02:27:55;;;;;;;32.92;21.48;;;12.20;99.90;;;;;;5095047;28;20031;-69
2021/09/19 02:30:20;;;;;;;30.70;21.70;;;12.30;99.90;;;;;;5096841;28;20496;-69
2021/09/19 02:32:46;;;;;;;35.20;21.33;;;12.30;99.90;;;;;;5078953;28;20480;-69
2021/09/19 02:35:12;;;;;;;31.50;20.95;;;12.30;99.90;;;;;;5096410;28;20069;-69
2021/09/19 02:37:39;;;;;;;32.30;20.85;;;12.30;99.90;;;;;;5096617;28;20059;-69
2021/09/19 02:40:06;;;;;;;29.60;20.20;;;12.30;99.90;;;;;;5094859;28;20016;-69
2021/09/19 02:42:31;;;;;;;30.67;20.08;;;12.30;99.90;;;;;;5095661;28;20016;-69
2021/09/19 02:44:57;;;;;;;35.17;20.10;;;12.20;99.90;;;;;;5095136;28;20027;-69
2021/09/19 02:47:23;;;;;;;30.92;21.02;;;12.20;99.90;;;;;;5077884;28;20107;-69
2021/09/19 02:49:48;;;;;;;27.98;20.02;;;12.20;99.90;;;;;;5096412;28;20465;-69
2021/09/19 02:52:14;;;;;;;32.53;20.00;;;12.10;99.90;;;;;;5095841;28;20147;-69
2021/09/19 02:54:39;;;;;;;29.48;20.80;;;12.10;99.90;;;;;;5096346;28;20024;-69
2021/09/19 02:57:05;;;;;;;34.78;21.52;;;12.00;99.90;;;;;;5094417;28;20094;-69
2021/09/19 02:59:31;;;;;;;32.78;20.92;;;12.00;99.90;;;;;;5094469;28;20499;-69
2021/09/19 03:01:56;;;;;;;31.73;20.45;;;11.90;99.90;;;;;;5094394;28;20439;-69
2021/09/19 03:04:22;;;;;;;30.20;20.58;;;11.90;99.90;;;;;;5095184;28;20059;-69
2021/09/19 03:06:47;;;;;;;36.20;22.27;;;11.80;99.90;;;;;;5095801;28;20028;-69
2021/09/19 03:09:13;;;;;;;31.20;21.10;;;11.80;99.90;;;;;;5095819;28;20050;-69
2021/09/19 03:11:39;;;;;;;30.90;20.48;;;11.80;99.90;;;;;;5094224;28;20415;-69
2021/09/19 03:14:04;;;;;;;30.83;21.05;;;11.80;99.90;;;;;;5094512;28;20024;-69
2021/09/19 03:16:30;;;;;;;30.13;20.67;;;11.80;99.90;;;;;;5095897;28;20115;-69
2021/09/19 03:18:56;;;;;;;32.78;19.88;;;11.80;99.90;;;;;;5095805;28;20036;-69
2021/09/19 03:21:21;;;;;;;33.40;20.52;;;11.70;99.90;;;;;;5095866;28;20125;-69
2021/09/19 03:23:47;;;;;;;32.00;21.38;;;11.70;99.90;;;;;;5077021;28;20025;-69
2021/09/19 03:26:12;;;;;;;31.67;21.58;;;11.70;99.90;;;;;;5095706;28;20020;-69
2021/09/19 03:28:38;;;;;;;32.28;21.33;;;11.70;99.90;;;;;;5095055;28;20020;-69
2021/09/19 03:31:03;;;;;;;35.97;21.70;;;11.70;99.90;;;;;;5095628;28;20028;-69
2021/09/19 03:33:29;;;;;;;30.25;21.13;;;11.70;99.90;;;;;;5095285;28;20020;-69
2021/09/19 03:35:54;;;;;;;31.75;21.05;;;11.70;99.90;;;;;;5093684;28;20073;-69
2021/09/19 03:38:20;;;;;;;32.42;22.00;;;11.80;99.90;;;;;;5093551;28;20035;-69
2021/09/19 03:40:45;;;;;;;32.97;22.15;;;11.80;99.90;;;;;;5095430;28;20107;-69
2021/09/19 03:43:11;;;;;;;32.42;21.13;;;11.80;99.90;;;;;;5095350;28;20055;-69
2021/09/19 03:45:36;;;;;;;34.20;21.35;;;11.80;99.90;;;;;;5095294;28;20051;-69
2021/09/19 03:48:05;;;;;;;29.80;20.38;;;11.80;99.90;;;;;;5094111;28;20028;-69
2021/09/19 03:50:31;;;;;;;33.75;21.15;;;11.70;99.90;;;;;;5077604;28;20081;-69
2021/09/19 03:52:57;;;;;;;35.58;21.98;;;11.80;99.90;;;;;;5094683;28;20020;-69
2021/09/19 03:55:23;;;;;;;31.27;20.38;;;11.70;99.90;;;;;;5094936;28;20031;-69
2021/09/19 03:57:48;;;;;;;32.85;20.88;;;11.70;99.90;;;;;;5094610;28;20051;-69
2021/09/19 04:00:14;;;;;;;30.40;19.75;;;11.80;99.90;;;;;;5095060;28;20083;-69
2021/09/19 04:02:40;;;;;;;28.80;18.65;;;11.80;99.90;;;;;;5095001;28;20403;-69
2021/09/19 04:05:07;;;;;;;32.88;20.27;;;11.80;99.90;;;;;;5094754;28;20028;-69
2021/09/19 04:07:33;;;;;;;25.98;18.55;;;11.80;99.90;;;;;;5094957;28;20346;-69
2021/09/19 04:09:59;;;;;;;25.30;18.52;;;11.80;99.90;;;;;;5093431;28;20031;-69
2021/09/19 04:12:24;;;;;;;32.38;19.98;;;11.80;99.90;;;;;;5094282;28;20031;-69
2021/09/19 04:14:50;;;;;;;33.78;20.17;;;11.80;99.90;;;;;;5094787;28;20032;-69
2021/09/19 04:17:15;;;;;;;29.33;19.48;;;11.80;99.90;;;;;;5093252;28;20546;-69
2021/09/19 04:19:41;;;;;;;27.15;18.90;;;11.80;99.90;;;;;;5094449;28;20408;-69
2021/09/19 04:22:06;;;;;;;31.02;18.60;;;11.70;99.90;;;;;;5094390;28;20518;-69
2021/09/19 04:24:32;;;;;;;27.88;18.08;;;11.80;99.90;;;;;;5092903;28;20028;-69
2021/09/19 04:26:58;;;;;;;27.75;18.00;;;11.80;99.90;;;;;;5094605;28;20422;-69
2021/09/19 04:29:23;;;;;;;25.30;17.15;;;11.70;99.90;;;;;;5092387;28;20127;-69
2021/09/19 04:31:49;;;;;;;26.63;17.67;;;11.70;99.90;;;;;;5093116;28;20376;-69
2021/09/19 04:34:14;;;;;;;28.55;17.85;;;11.70;99.90;;;;;;5094480;28;20028;-69
2021/09/19 04:36:40;;;;;;;26.88;17.95;;;11.70;99.90;;;;;;5093881;28;20031;-69
2021/09/19 04:39:05;;;;;;;28.40;18.25;;;11.80;99.90;;;;;;5094317;28;20024;-69
2021/09/19 04:41:31;;;;;;;31.08;18.83;;;11.80;99.90;;;;;;5094390;28;20028;-69
2021/09/19 04:43:56;;;;;;;29.60;18.20;;;11.80;99.90;;;;;;5093232;28;20028;-69
2021/09/19 04:46:22;;;;;;;28.50;19.00;;;11.80;99.90;;;;;;5094291;28;20023;-69
2021/09/19 04:48:47;;;;;;;25.88;16.83;;;11.80;99.90;;;;;;5093303;28;20032;-69
2021/09/19 04:51:13;;;;;;;31.17;17.75;;;11.80;99.90;;;;;;5075637;28;20070;-69
2021/09/19 04:53:38;;;;;;;29.92;18.58;;;11.80;99.90;;;;;;5094183;28;20461;-69
2021/09/19 04:56:04;;;;;;;28.90;17.60;;;11.90;99.90;;;;;;5093932;28;20024;-69
2021/09/19 04:58:29;;;;;;;28.05;17.50;;;11.90;99.90;;;;;;5092530;28;20040;-69
2021/09/19 05:00:55;;;;;;;26.40;16.88;;;11.90;99.90;;;;;;5092431;28;20028;-69
2021/09/19 05:03:20;;;;;;;24.05;15.82;;;11.90;99.90;;;;;;5092335;28;20056;-69
2021/09/19 05:05:46;;;;;;;25.65;16.63;;;12.00;99.90;;;;;;5092289;28;20047;-69
2021/09/19 05:08:12;;;;;;;25.83;16.17;;;12.00;99.90;;;;;;5075528;28;20024;-69
2021/09/19 05:10:37;;;;;;;22.10;15.75;;;12.10;99.90;;;;;;5093758;28;20028;-69
2021/09/19 05:13:03;;;;;;;21.77;15.55;;;12.10;99.90;;;;;;5093760;28;20035;-69
2021/09/19 05:15:28;;;;;;;24.25;14.48;;;12.10;99.90;;;;;;5093463;28;20024;-69
2021/09/19 05:17:54;;;;;;;22.33;15.35;;;12.10;99.90;;;;;;5093931;28;20031;-69
2021/09/19 05:20:20;;;;;;;21.63;14.93;;;12.20;99.90;;;;;;5094239;28;20039;-69
2021/09/19 05:22:45;;;;;;;22.45;14.38;;;12.20;99.90;;;;;;5093061;28;20031;-69
2021/09/19 05:25:11;;;;;;;20.50;14.13;;;12.30;99.90;;;;;;5093941;28;20021;-69
2021/09/19 05:27:36;;;;;;;19.70;14.50;;;12.40;99.90;;;;;;5075806;28;20067;-69
2021/09/19 05:30:04;;;;;;;20.40;14.25;;;12.40;99.90;;;;;;5093611;28;20024;-68
2021/09/19 05:32:29;;;;;;;19.30;13.57;;;12.50;99.90;;;;;;5093892;28;20020;-69
2021/09/19 05:34:55;;;;;;;17.67;13.68;;;12.50;99.90;;;;;;5092719;28;20032;-69
2021/09/19 05:37:20;;;;;;;18.45;13.68;;;12.60;99.90;;;;;;5093210;28;20032;-69
2021/09/19 05:39:46;;;;;;;17.48;12.90;;;12.60;99.90;;;;;;5094022;28;20047;-69
2021/09/19 05:42:11;;;;;;;17.92;12.85;;;12.70;99.90;;;;;;5097422;28;20076;-69
2021/09/19 05:44:37;;;;;;;16.42;11.95;;;12.80;99.90;;;;;;5096246;28;20044;-69
2021/09/19 05:47:03;;;;;;;14.15;11.27;;;12.80;99.90;;;;;;5097674;28;20476;-69
2021/09/19 05:49:28;;;;;;;17.05;12.10;;;12.90;99.90;;;;;;5097610;28;20028;-69
2021/09/19 05:51:54;;;;;;;15.38;11.18;;;13.00;99.90;;;;;;5097595;28;20027;-69
2021/09/19 05:54:19;;;;;;;15.68;10.95;;;13.00;99.90;;;;;;5097238;28;20129;-69
2021/09/19 05:56:45;;;;;;;13.90;10.43;;;13.10;99.90;;;;;;5096953;28;20465;-69
2021/09/19 05:59:10;;;;;;;14.40;10.50;;;13.20;99.90;;;;;;5097333;28;20046;-69
2021/09/19 06:01:36;;;;;;;13.43;10.48;;;13.30;99.90;;;;;;5097343;28;20050;-69
2021/09/19 06:04:01;;;;;;;12.27;9.73;;;13.40;99.90;;;;;;5097312;28;20020;-69
2021/09/19 06:06:27;;;;;;;12.90;8.95;;;13.50;99.90;;;;;;5096736;28;20020;-69
2021/09/19 06:08:52;;;;;;;10.52;8.65;;;13.60;99.90;;;;;;5096985;28;20028;-69
2021/09/19 06:11:18;;;;;;;10.50;8.13;;;13.60;99.90;;;;;;5095392;28;20028;-69
2021/09/19 06:13:43;;;;;;;10.95;7.93;;;13.70;99.90;;;;;;5097150;28;20028;-70
2021/09/19 06:16:09;;;;;;;9.95;7.95;;;13.70;99.90;;;;;;5096801;28;20050;-69
2021/09/19 06:18:34;;;;;;;10.50;7.95;;;13.80;99.90;;;;;;5095530;28;20123;-69
2021/09/19 06:21:01;;;;;;;9.35;7.35;;;13.90;99.90;;;;;;5096997;28;20024;-69
2021/09/19 06:23:26;;;;;;;11.38;7.35;;;14.00;99.90;;;;;;5096966;28;20021;-69
2021/09/19 06:25:52;;;;;;;10.65;7.13;;;14.00;99.90;;;;;;5095024;28;20381;-70
2021/09/19 06:28:19;;;;;;;9.25;6.90;;;14.10;99.90;;;;;;5096849;28;20073;-69
2021/09/19 06:30:45;;;;;;;10.13;6.63;;;14.10;99.90;;;;;;5096824;28;20024;-70
2021/09/19 06:33:10;;;;;;;9.60;6.60;;;14.20;99.90;;;;;;5096740;28;20097;-70
2021/09/19 06:35:36;;;;;;;7.50;6.55;;;14.20;99.90;;;;;;5095248;28;20032;-70
2021/09/19 06:38:01;;;;;;;9.63;6.25;;;14.20;99.90;;;;;;5095198;28;20023;-71
2021/09/19 06:40:27;;;;;;;7.40;6.55;;;14.30;99.90;;;;;;5096655;28;20078;-71
2021/09/19 06:42:52;;;;;;;8.77;6.15;;;14.30;99.90;;;;;;5094789;28;20031;-71
2021/09/19 06:45:18;;;;;;;8.10;6.28;;;14.40;99.90;;;;;;5096508;28;20108;-71
2021/09/19 06:47:44;;;;;;;8.40;6.22;;;14.50;99.90;;;;;;5096224;28;20028;-70
2021/09/19 06:50:11;;;;;;;9.80;5.85;;;14.60;99.90;;;;;;5096069;28;20028;-70
2021/09/19 06:52:37;;;;;;;6.38;5.75;;;14.60;99.90;;;;;;5096026;28;20024;-71
2021/09/19 06:55:03;;;;;;;8.07;6.03;;;14.70;99.90;;;;;;5096315;28;20466;-70
2021/09/19 06:57:29;;;;;;;8.95;6.15;;;14.80;99.90;;;;;;5095757;28;20083;-71
2021/09/19 06:59:55;;;;;;;10.40;6.40;;;14.80;99.90;;;;;;5095925;28;20020;-71
2021/09/19 07:02:20;;;;;;;10.65;6.28;;;14.90;99.90;;;;;;5095607;28;20023;-71
2021/09/19 07:04:46;;;;;;;8.35;5.15;;;14.90;99.90;;;;;;5094935;28;20032;-71
2021/09/19 07:07:11;;;;;;;7.93;6.22;;;15.10;99.90;;;;;;5096040;28;20103;-71
2021/09/19 07:09:37;;;;;;;8.50;5.75;;;15.10;99.90;;;;;;5096089;28;20472;-69
2021/09/19 07:12:03;;;;;;;9.93;5.60;;;15.10;99.90;;;;;;5095727;28;20097;-69
2021/09/19 07:14:29;;;;;;;7.65;6.00;;;15.20;99.90;;;;;;5095546;28;20024;-69
2021/09/19 07:16:54;;;;;;;7.65;5.80;;;15.20;99.90;;;;;;5095616;28;20355;-69
2021/09/19 07:19:20;;;;;;;9.60;5.68;;;15.30;99.90;;;;;;5095504;28;20099;-69
2021/09/19 07:21:46;;;;;;;8.63;5.95;;;15.30;99.90;;;;;;5095774;28;20028;-69
2021/09/19 07:24:11;;;;;;;7.88;5.72;;;15.40;99.90;;;;;;5095478;28;20025;-69
2021/09/19 07:26:37;;;;;;;7.78;5.70;;;15.50;99.90;;;;;;5095717;28;20112;-69
2021/09/19 07:29:03;;;;;;;8.70;6.00;;;15.50;99.90;;;;;;5095355;28;20099;-69
2021/09/19 07:31:29;;;;;;;10.10;6.28;;;15.50;99.90;;;;;;5094426;28;20519;-69
2021/09/19 07:33:55;;;;;;;12.85;6.18;;;15.60;99.90;;;;;;5095343;28;20032;-69
2021/09/19 07:36:26;;;;;;;8.13;5.97;;;15.70;99.90;;;;;;5095307;28;20024;-69
2021/09/19 07:38:52;;;;;;;8.40;6.00;;;15.70;99.90;;;;;;5095444;28;20024;-69
2021/09/19 07:41:17;;;;;;;9.63;6.15;;;15.70;99.90;;;;;;5095480;28;20429;-70
2021/09/19 07:43:43;;;;;;;8.70;6.00;;;15.80;99.90;;;;;;5095161;28;20031;-69
2021/09/19 07:46:09;;;;;;;8.45;6.03;;;15.80;99.90;;;;;;5095383;28;20023;-69
2021/09/19 07:48:35;;;;;;;8.68;5.72;;;16.00;99.90;;;;;;5095075;28;20027;-69
2021/09/19 07:51:00;;;;;;;8.93;6.72;;;16.10;99.90;;;;;;5095284;28;20385;-69
2021/09/19 07:53:26;;;;;;;9.25;6.25;;;16.10;99.90;;;;;;5095273;28;20451;-69
2021/09/19 07:55:52;;;;;;;9.23;6.50;;;16.20;99.90;;;;;;5093453;28;20043;-69
2021/09/19 07:58:17;;;;;;;10.88;6.63;;;16.20;99.90;;;;;;5094417;28;20054;-69
2021/09/19 08:00:43;;;;;;;8.48;6.22;;;16.20;99.90;;;;;;5095088;28;20514;-69
2021/09/19 08:03:09;;;;;;;8.80;6.70;;;16.30;99.90;;;;;;5092481;28;20024;-69
2021/09/19 08:05:34;;;;;;;9.43;6.38;;;16.30;99.90;;;;;;5095028;28;20037;-69
2021/09/19 08:08:00;;;;;;;9.27;6.85;;;16.30;99.90;;;;;;5094597;28;20028;-69
2021/09/19 08:10:25;;;;;;;8.20;6.45;;;16.40;99.90;;;;;;5094656;28;20469;-69
2021/09/19 08:12:52;;;;;;;7.90;6.38;;;16.40;99.90;;;;;;5093099;28;20032;-69
2021/09/19 08:15:19;;;;;;;8.52;6.45;;;16.40;99.90;;;;;;5094791;28;20406;-69
2021/09/19 08:17:45;;;;;;;8.32;6.68;;;16.50;99.90;;;;;;5094949;28;20374;-69
2021/09/19 08:20:13;;;;;;;7.80;6.40;;;16.50;99.90;;;;;;5093250;28;20142;-69
2021/09/19 08:22:40;;;;;;;13.52;6.82;;;16.60;99.90;;;;;;5094160;28;20022;-69
2021/09/19 08:25:06;;;;;;;11.45;6.75;;;16.60;99.90;;;;;;5094383;28;20017;-69
2021/09/19 08:27:34;;;;;;;7.97;6.07;;;16.60;99.90;;;;;;5094614;28;20047;-69
2021/09/19 08:30:01;;;;;;;10.80;7.75;;;16.60;99.90;;;;;;5094520;28;20483;-69
2021/09/19 08:32:27;;;;;;;9.13;6.80;;;16.40;99.90;;;;;;5094568;28;20020;-69
2021/09/19 08:34:52;;;;;;;10.45;6.95;;;16.50;99.90;;;;;;5094233;28;20453;-69
2021/09/19 08:37:18;;;;;;;11.20;6.60;;;16.40;99.90;;;;;;5094198;28;20031;-69
2021/09/19 08:39:43;;;;;;;8.80;6.60;;;16.60;99.90;;;;;;5093212;28;20107;-69
2021/09/19 08:42:09;;;;;;;6.43;5.82;;;16.70;99.90;;;;;;5094131;28;20481;-69
2021/09/19 08:44:34;;;;;;;9.63;6.65;;;16.70;99.90;;;;;;5093400;28;20080;-69
2021/09/19 08:47:00;;;;;;;9.52;7.25;;;16.60;99.90;;;;;;5094046;28;20422;-69
2021/09/19 08:49:26;;;;;;;7.75;6.70;;;16.50;99.90;;;;;;5094024;28;20362;-69
2021/09/19 08:51:52;;;;;;;9.95;6.45;;;16.60;99.90;;;;;;5094282;28;20035;-69
2021/09/19 08:54:18;;;;;;;8.20;6.43;;;16.60;99.90;;;;;;5094254;28;20031;-69
2021/09/19 08:56:46;;;;;;;7.03;5.80;;;16.80;99.90;;;;;;5094005;28;20027;-69
2021/09/19 08:59:12;;;;;;;9.82;5.80;;;17.00;99.90;;;;;;5093828;28;20052;-69
2021/09/19 09:02:00;;;;;;;5.97;5.30;;;17.20;99.90;;;;;;5093889;28;20069;-69
2021/09/19 09:04:26;;;;;;;7.15;5.30;;;17.10;99.90;;;;;;5093888;28;20016;-69
2021/09/19 09:06:53;;;;;;;9.32;5.55;;;17.20;99.90;;;;;;5093569;28;20030;-69
2021/09/19 09:09:19;;;;;;;8.60;5.20;;;17.30;99.90;;;;;;5093756;28;20437;-69
2021/09/19 09:12:04;;;;;;;7.00;4.88;;;17.60;99.90;;;;;;5094082;28;20063;-69
2021/09/19 09:14:37;;;;;;;5.10;4.60;;;17.70;99.90;;;;;;5094580;28;20024;-69
2021/09/19 09:17:20;;;;;;;9.02;5.00;;;17.60;99.90;;;;;;5098003;28;20020;-69
2021/09/19 09:19:49;;;;;;;7.03;4.78;;;17.60;99.90;;;;;;5097552;28;20051;-69
2021/09/19 09:22:20;;;;;;;7.85;5.45;;;17.50;99.90;;;;;;5098153;28;20114;-69
2021/09/19 09:25:14;;;;;;;6.63;5.50;;;17.70;99.90;;;;;;5096822;28;20039;-69
2021/09/19 09:27:47;;;;;;;8.10;5.22;;;17.70;99.90;;;;;;5098020;28;20032;-69
2021/09/19 09:30:19;;;;;;;5.20;4.57;;;17.90;99.90;;;;;;5080123;28;20028;-69
2021/09/19 09:33:05;;;;;;;5.85;4.50;;;18.00;99.90;;;;;;5097950;28;20059;-69
2021/09/19 09:35:34;;;;;;;7.47;4.32;;;18.40;99.90;;;;;;5097320;28;20472;-69
2021/09/19 09:38:00;;;;;;;4.43;3.90;;;18.80;99.90;;;;;;5097503;28;20476;-69
2021/09/19 09:40:29;;;;;;;6.00;4.30;;;18.70;99.90;;;;;;5096560;28;20024;-69
2021/09/19 09:43:13;;;;;;;4.45;3.85;;;18.40;99.90;;;;;;5097173;28;20016;-69
2021/09/19 09:45:42;;;;;;;6.20;4.07;;;18.30;99.90;;;;;;5079926;28;20016;-69
2021/09/19 09:48:26;;;;;;;5.88;4.40;;;18.10;99.90;;;;;;5097622;28;20027;-69
2021/09/19 09:50:54;;;;;;;6.03;3.78;;;18.10;99.90;;;;;;5096139;28;20027;-69
2021/09/19 09:53:22;;;;;;;4.80;3.75;;;18.00;99.90;;;;;;5097563;28;20112;-69
2021/09/19 09:55:48;;;;;;;4.00;3.60;;;18.10;99.90;;;;;;5097258;28;20048;-69
2021/09/19 09:58:18;;;;;;;7.88;3.78;;;18.20;99.90;;;;;;5096760;28;20040;-69
2021/09/19 10:00:45;;;;;;;4.38;3.33;;;18.20;99.90;;;;;;5097445;28;20070;-69
2021/09/19 10:03:11;;;;;;;4.25;3.33;;;18.30;99.90;;;;;;5097398;28;20047;-69
2021/09/19 10:05:37;;;;;;;4.95;3.38;;;18.10;99.90;;;;;;5097061;28;20020;-69
2021/09/19 10:08:03;;;;;;;3.25;2.95;;;17.90;99.90;;;;;;5097321;28;20565;-69
2021/09/19 10:10:32;;;;;;;4.07;3.03;;;18.20;99.90;;;;;;5096709;28;20080;-69
2021/09/19 10:12:58;;;;;;;4.07;2.88;;;18.20;99.90;;;;;;5095371;28;20028;-69
2021/09/19 10:15:25;;;;;;;3.15;2.70;;;18.00;99.90;;;;;;5097174;28;20020;-69
2021/09/19 10:17:51;;;;;;;4.50;2.83;;;18.10;99.90;;;;;;5097010;28;20074;-69
2021/09/19 10:20:24;;;;;;;3.35;2.75;;;18.20;99.90;;;;;;5095599;28;20027;-69
2021/09/19 10:23:12;;;;;;;3.55;2.28;;;18.20;99.90;;;;;;5096959;28;20454;-69
2021/09/19 10:25:47;;;;;;;2.35;2.15;;;18.50;99.90;;;;;;5096095;28;20468;-69
2021/09/19 10:28:34;;;;;;;2.28;2.00;;;18.50;99.90;;;;;;5096906;28;20107;-69
2021/09/19 10:31:21;;;;;;;2.50;2.30;;;18.60;99.90;;;;;;5095368;28;20020;-69
2021/09/19 10:34:06;;;;;;;1.73;1.63;;;18.40;99.90;;;;;;5096761;28;20073;-69
2021/09/19 10:36:44;;;;;;;2.63;1.80;;;18.50;99.90;;;;;;5078042;28;20036;-69
2021/09/19 10:39:29;;;;;;;2.55;1.33;;;19.00;99.90;;;;;;5096538;28;20028;-69
2021/09/19 10:42:17;;;;;;;1.75;1.65;;;19.60;99.90;;;;;;5096385;28;20020;-69
2021/09/19 10:47:34;;;;;;;1.50;1.40;;;20.00;99.90;;;;;;5112240;27;20380;-70
2021/09/19 10:50:36;;;;;;;2.63;1.70;;;20.60;99.90;;;;;;5111589;28;20024;-70
2021/09/19 10:53:06;;;;;;;1.75;1.65;;;20.60;99.90;;;;;;5110435;28;20020;-69
2021/09/19 10:55:56;;;;;;;2.47;1.90;;;20.50;99.90;;;;;;5111474;28;20462;-69
2021/09/19 10:58:25;;;;;;;1.50;1.40;;;20.50;99.90;;;;;;5111119;28;20047;-69
2021/09/19 11:01:26;;;;;;;1.60;1.50;;;20.40;99.90;;;;;;5111653;28;20020;-69
2021/09/19 11:06:39;;;;;;;1.75;0.80;;;20.20;99.90;;;;;;5112230;27;20351;-69
2021/09/19 11:09:22;;;;;;;0.70;0.70;;;19.70;99.90;;;;;;5110065;28;20461;-70
2021/09/19 11:12:10;;;;;;;1.25;0.98;;;20.00;99.90;;;;;;5111870;28;20020;-70
2021/09/19 11:14:58;;;;;;;3.17;1.42;;;19.80;99.90;;;;;;5112061;28;20415;-69
2021/09/19 11:17:26;;;;;;;2.40;1.23;;;19.50;99.90;;;;;;5111704;28;20103;-69
2021/09/19 11:22:52;;;;;;;1.60;1.50;;;19.20;99.90;;;;;;5112280;27;20132;-69
2021/09/19 11:25:20;;;;;;;2.22;1.75;;;19.20;99.90;;;;;;5110814;28;20028;-69
2021/09/19 11:27:49;;;;;;;1.95;1.77;;;19.30;99.90;;;;;;5111634;28;20020;-69
2021/09/19 11:30:18;;;;;;;3.90;1.75;;;19.50;99.90;;;;;;5110528;28;20027;-69
2021/09/19 11:32:45;;;;;;;2.70;2.20;;;19.40;99.90;;;;;;5110598;28;20027;-69
2021/09/19 11:35:11;;;;;;;3.55;2.15;;;20.00;99.90;;;;;;5111174;28;20023;-69
2021/09/19 11:37:37;;;;;;;2.33;2.10;;;20.10;99.90;;;;;;5111757;28;20024;-69
2021/09/19 11:40:09;;;;;;;3.17;2.30;;;19.10;99.90;;;;;;5111591;28;20457;-69
2021/09/19 11:42:36;;;;;;;3.30;2.60;;;18.80;99.90;;;;;;5110483;28;20028;-69
2021/09/19 11:45:07;;;;;;;3.90;2.65;;;18.40;99.90;;;;;;5110133;28;20024;-69
2021/09/19 11:47:33;;;;;;;6.18;2.47;;;18.60;99.90;;;;;;5111479;28;20016;-69
2021/09/19 11:50:00;;;;;;;3.63;2.80;;;18.70;99.90;;;;;;5111250;28;20106;-69
2021/09/19 11:52:26;;;;;;;2.60;2.40;;;18.50;99.90;;;;;;5111447;28;20020;-69
2021/09/19 11:54:52;;;;;;;5.10;2.97;;;18.10;99.90;;;;;;5111115;28;20028;-68
2021/09/19 11:57:18;;;;;;;3.05;2.75;;;17.90;99.90;;;;;;5111075;28;20103;-68
2021/09/19 11:59:46;;;;;;;3.15;2.85;;;17.80;99.90;;;;;;5111225;28;20058;-69
2021/09/19 12:02:14;;;;;;;4.47;2.80;;;17.80;99.90;;;;;;5109243;28;20020;-69
2021/09/19 12:04:43;;;;;;;3.80;3.20;;;17.80;99.90;;;;;;5109876;28;20026;-69
2021/09/19 12:07:12;;;;;;;4.70;2.75;;;17.70;99.90;;;;;;5111185;28;20020;-69
2021/09/19 12:09:43;;;;;;;4.00;3.03;;;17.70;99.90;;;;;;5109879;28;20024;-69
2021/09/19 12:12:13;;;;;;;3.92;3.63;;;17.90;99.90;;;;;;5109483;28;20034;-69
2021/09/19 12:14:44;;;;;;;4.63;4.13;;;18.10;99.90;;;;;;5110430;28;20027;-69
2021/09/19 12:17:11;;;;;;;4.10;3.70;;;18.00;99.90;;;;;;5110986;28;20024;-68
2021/09/19 12:19:39;;;;;;;5.20;3.85;;;17.70;99.90;;;;;;5110161;28;20027;-68
2021/09/19 12:22:09;;;;;;;4.22;3.83;;;17.50;99.90;;;;;;5110106;28;20123;-68
2021/09/19 12:24:37;;;;;;;5.57;3.30;;;17.40;99.90;;;;;;5110534;28;20020;-69
2021/09/19 12:27:19;;;;;;;4.68;3.40;;;17.40;99.90;;;;;;5109001;28;20023;-68
2021/09/19 12:29:56;;;;;;;6.25;3.80;;;17.40;99.90;;;;;;5088440;28;20039;-69
2021/09/19 12:32:35;;;;;;;4.45;2.97;;;17.60;99.90;;;;;;5085095;28;20056;-69
2021/09/19 12:35:02;;;;;;;4.10;3.55;;;17.60;99.90;;;;;;5075729;28;20024;-69
2021/09/19 12:37:34;;;;;;;4.55;3.83;;;17.50;99.90;;;;;;5076732;28;20043;-69
2021/09/19 12:40:06;;;;;;;5.45;3.75;;;17.50;99.90;;;;;;5074858;28;20077;-69
2021/09/19 12:42:32;;;;;;;6.03;4.13;;;17.60;99.90;;;;;;5076483;28;20112;-69
2021/09/19 12:44:57;;;;;;;5.20;4.00;;;17.60;99.90;;;;;;5076247;28;20108;-69
2021/09/19 12:47:30;;;;;;;4.38;3.97;;;17.40;99.90;;;;;;5076261;28;20028;-69